Time;durP1;ratioP1;P1;durP2;ratioP2;P2;SDS_P1;SDS_P2;PMS_P1;PMS_P2;Temp;Humidity;BMP_temperature;BMP_pressure;BME280_temperature;BME280_humidity;BME280_pressure;Samples;Min_cycle;Max_cycle;Signal;HPM_P1;HPM_P2
2021/03/31 00:01:36;;;;;;;;;;;15.60;66.20;;;;;;5028394;28;19913;-57
2021/03/31 00:04:02;;;;;;;;;;;15.70;66.30;;;;;;5027503;28;19917;-59
2021/03/31 00:06:27;;;;;;;;;;;15.60;66.30;;;;;;5026984;28;20314;-56
2021/03/31 00:08:52;;;;;;;;;;;15.60;66.30;;;;;;5028165;28;20356;-59
2021/03/31 00:11:18;;;;;;;;;;;15.50;66.40;;;;;;5027458;28;19997;-57
2021/03/31 00:13:43;;;;;;;;;;;15.50;66.40;;;;;;5025550;28;19913;-57
2021/03/31 00:16:09;;;;;;;;;;;15.50;66.50;;;;;;5029002;28;19913;-59
2021/03/31 00:18:34;;;;;;;;;;;15.50;66.60;;;;;;5027557;28;19956;-58
2021/03/31 00:21:00;;;;;;;;;;;15.40;66.60;;;;;;5027939;28;20434;-59
2021/03/31 00:23:26;;;;;;;;;;;15.40;66.60;;;;;;5026223;28;19955;-57
2021/03/31 00:25:51;;;;;;;;;;;15.40;66.60;;;;;;5027056;28;20258;-57
2021/03/31 00:28:17;;;;;;;;;;;15.40;66.70;;;;;;5026442;28;20323;-58
2021/03/31 00:30:42;;;;;;;;;;;15.30;66.80;;;;;;5026983;28;19956;-59
2021/03/31 00:33:08;;;;;;;;;;;15.30;66.80;;;;;;5028081;28;19972;-60
2021/03/31 00:35:33;;;;;;;;;;;15.30;66.90;;;;;;5026995;28;19952;-58
2021/03/31 00:37:59;;;;;;;;;;;15.30;66.80;;;;;;5025456;28;20376;-60
2021/03/31 00:40:25;;;;;;;;;;;15.20;66.80;;;;;;5026072;28;19921;-59
2021/03/31 00:42:50;;;;;;;;;;;15.20;66.90;;;;;;5027950;28;19917;-58
2021/03/31 00:45:16;;;;;;;;;;;15.20;66.90;;;;;;5025705;28;19909;-57
2021/03/31 00:47:42;;;;;;;;;;;15.20;67.00;;;;;;5026618;28;19909;-58
2021/03/31 00:50:08;;;;;;;;;;;15.20;67.00;;;;;;5025475;28;19971;-58
2021/03/31 00:52:33;;;;;;;;;;;15.10;67.00;;;;;;5023899;28;19913;-59
2021/03/31 00:54:59;;;;;;;;;;;15.10;67.80;;;;;;5028206;28;19916;-57
2021/03/31 00:57:25;;;;;;;;;;;15.10;67.10;;;;;;5008846;28;19952;-57
2021/03/31 00:59:51;;;;;;;;;;;15.00;67.10;;;;;;5025565;28;19996;-60
2021/03/31 01:02:16;;;;;;;;;;;15.00;67.20;;;;;;5025547;28;19924;-60
2021/03/31 01:04:42;;;;;;;;;;;15.00;67.20;;;;;;5024809;28;19909;-57
2021/03/31 01:07:07;;;;;;;;;;;15.00;67.30;;;;;;5025189;28;19917;-57
2021/03/31 01:09:32;;;;;;;;;;;14.90;67.30;;;;;;5026768;28;20231;-59
2021/03/31 01:12:17;;;;;;;;;;;14.90;67.50;;;;;;5027834;28;20382;-57
2021/03/31 01:14:45;;;;;;;;;;;14.90;67.30;;;;;;5026462;28;19912;-58
2021/03/31 01:17:15;;;;;;;;;;;14.80;67.50;;;;;;5025476;28;20427;-56
2021/03/31 01:19:55;;;;;;;;;;;14.80;67.60;;;;;;5024618;28;19924;-58
2021/03/31 01:22:40;;;;;;;;;;;14.80;67.60;;;;;;5026650;28;19913;-58
2021/03/31 01:25:12;;;;;;;;;;;14.80;67.70;;;;;;5026901;28;20387;-59
2021/03/31 01:27:41;;;;;;;;;;;14.70;67.70;;;;;;5027656;28;20016;-57
2021/03/31 01:30:25;;;;;;;;;;;14.70;67.80;;;;;;5025192;28;19968;-59
2021/03/31 01:33:10;;;;;;;;;;;14.70;67.80;;;;;;5023762;28;20385;-59
2021/03/31 01:35:36;;;;;;;;;;;14.70;67.80;;;;;;5026569;28;19913;-60
2021/03/31 01:38:02;;;;;;;;;;;14.70;67.80;;;;;;5025192;28;19924;-57
2021/03/31 01:40:27;;;;;;;;;;;14.70;67.80;;;;;;5026049;28;20280;-56
2021/03/31 01:43:02;;;;;;;;;;;14.60;67.80;;;;;;5023333;28;19909;-59
2021/03/31 01:45:28;;;;;;;;;;;14.60;67.80;;;;;;5023656;28;19917;-56
2021/03/31 01:47:53;;;;;;;;;;;14.60;67.80;;;;;;5024665;28;20369;-57
2021/03/31 01:50:19;;;;;;;;;;;14.60;67.80;;;;;;5025215;28;19915;-59
2021/03/31 01:52:45;;;;;;;;;;;14.50;67.90;;;;;;5023772;28;19960;-59
2021/03/31 01:55:14;;;;;;;;;;;14.50;68.00;;;;;;5006733;28;19924;-62
2021/03/31 01:57:39;;;;;;;;;;;14.50;67.90;;;;;;5006497;28;19917;-58
2021/03/31 02:00:05;;;;;;;;;;;14.50;68.00;;;;;;5025465;28;20047;-59
2021/03/31 02:02:31;;;;;;;;;;;14.50;68.00;;;;;;5025468;28;20312;-58
2021/03/31 02:04:56;;;;;;;;;;;14.40;68.00;;;;;;5027472;28;20232;-56
2021/03/31 02:07:22;;;;;;;;;;;14.40;68.10;;;;;;5023661;28;19913;-59
2021/03/31 02:09:48;;;;;;;;;;;14.40;68.00;;;;;;5022505;28;19920;-57
2021/03/31 02:12:14;;;;;;;;;;;14.30;68.10;;;;;;5023856;28;19924;-56
2021/03/31 02:14:41;;;;;;;;;;;14.30;68.20;;;;;;5026070;28;19909;-59
2021/03/31 02:17:07;;;;;;;;;;;14.30;68.20;;;;;;5027535;28;19909;-60
2021/03/31 02:19:33;;;;;;;;;;;14.20;68.20;;;;;;5028914;28;20317;-57
2021/03/31 02:21:59;;;;;;;;;;;14.20;68.30;;;;;;5027259;28;20032;-58
2021/03/31 02:24:24;;;;;;;;;;;14.10;68.30;;;;;;5027205;28;19914;-56
2021/03/31 02:26:50;;;;;;;;;;;14.20;68.40;;;;;;5029957;28;20372;-59
2021/03/31 02:29:15;;;;;;;;;;;14.10;68.40;;;;;;5029608;28;19913;-60
2021/03/31 02:31:40;;;;;;;;;;;14.10;68.50;;;;;;5029529;28;19910;-59
2021/03/31 02:34:06;;;;;;;;;;;14.10;68.60;;;;;;5027405;28;20483;-57
2021/03/31 02:36:32;;;;;;;;;;;14.10;69.10;;;;;;5026828;28;19913;-57
2021/03/31 02:38:57;;;;;;;;;;;14.10;68.50;;;;;;5027477;28;20070;-57
2021/03/31 02:41:23;;;;;;;;;;;14.10;68.50;;;;;;5027370;28;20186;-56
2021/03/31 02:43:48;;;;;;;;;;;14.10;68.60;;;;;;5028639;28;19960;-59
2021/03/31 02:46:16;;;;;;;;;;;14.00;68.60;;;;;;5010657;28;19948;-58
2021/03/31 02:48:42;;;;;;;;;;;14.00;68.70;;;;;;5027907;28;19917;-59
2021/03/31 02:51:07;;;;;;;;;;;14.00;68.70;;;;;;5026625;28;19913;-60
2021/03/31 02:53:33;;;;;;;;;;;13.90;68.70;;;;;;5029190;28;19914;-57
2021/03/31 02:56:00;;;;;;;;;;;14.00;68.80;;;;;;5029966;28;19913;-58
2021/03/31 02:58:25;;;;;;;;;;;13.90;68.80;;;;;;5027679;28;19971;-57
2021/03/31 03:00:51;;;;;;;;;;;13.90;69.00;;;;;;5026785;28;19913;-59
2021/03/31 03:03:16;;;;;;;;;;;13.80;68.90;;;;;;5025607;28;19916;-60
2021/03/31 03:05:42;;;;;;;;;;;13.80;69.00;;;;;;5027466;28;20155;-60
2021/03/31 03:08:07;;;;;;;;;;;13.80;69.00;;;;;;5028534;28;19909;-57
2021/03/31 03:10:33;;;;;;;;;;;13.80;69.00;;;;;;5029824;28;20120;-59
2021/03/31 03:12:59;;;;;;;;;;;13.80;69.10;;;;;;5028576;28;19955;-58
2021/03/31 03:15:25;;;;;;;;;;;13.70;69.00;;;;;;5025885;28;20289;-57
2021/03/31 03:17:51;;;;;;;;;;;13.70;69.10;;;;;;5026232;28;19970;-61
2021/03/31 03:20:16;;;;;;;;;;;13.70;69.20;;;;;;5027378;28;20373;-59
2021/03/31 03:22:45;;;;;;;;;;;13.60;69.10;;;;;;5027620;28;19910;-56
2021/03/31 03:25:11;;;;;;;;;;;13.70;69.30;;;;;;5010846;28;19920;-60
2021/03/31 03:27:37;;;;;;;;;;;13.60;69.30;;;;;;5007758;28;19921;-56
2021/03/31 03:30:04;;;;;;;;;;;13.60;69.50;;;;;;5026077;28;20015;-60
2021/03/31 03:32:30;;;;;;;;;;;13.60;69.50;;;;;;5029227;28;19939;-59
2021/03/31 03:34:56;;;;;;;;;;;13.50;69.40;;;;;;5027732;28;20007;-58
2021/03/31 03:37:21;;;;;;;;;;;13.50;69.40;;;;;;5027017;28;19928;-60
2021/03/31 03:39:47;;;;;;;;;;;13.50;69.50;;;;;;5022228;28;19971;-58
2021/03/31 03:42:12;;;;;;;;;;;13.50;69.40;;;;;;5006881;28;19921;-58
2021/03/31 03:44:37;;;;;;;;;;;13.50;69.50;;;;;;5023157;28;19987;-58
2021/03/31 03:47:03;;;;;;;;;;;13.50;69.50;;;;;;5007744;28;19952;-56
2021/03/31 03:49:28;;;;;;;;;;;13.40;69.50;;;;;;5023479;28;19921;-59
2021/03/31 03:51:54;;;;;;;;;;;13.40;69.60;;;;;;5021252;28;19914;-58
2021/03/31 03:54:19;;;;;;;;;;;13.40;69.70;;;;;;5006732;28;20435;-60
2021/03/31 03:56:45;;;;;;;;;;;13.40;69.70;;;;;;5022824;28;19968;-57
2021/03/31 03:59:20;;;;;;;;;;;13.30;69.70;;;;;;5007814;28;19949;-59
2021/03/31 04:01:45;;;;;;;;;;;13.30;69.80;;;;;;5007677;28;19914;-57
2021/03/31 04:04:11;;;;;;;;;;;13.30;69.80;;;;;;5022427;28;19959;-57
2021/03/31 04:06:36;;;;;;;;;;;13.30;70.10;;;;;;5006700;28;20396;-59
2021/03/31 04:09:02;;;;;;;;;;;13.30;69.90;;;;;;5005045;28;19910;-59
2021/03/31 04:11:28;;;;;;;;;;;13.20;69.90;;;;;;5009059;28;20340;-57
2021/03/31 04:13:53;;;;;;;;;;;13.20;69.90;;;;;;5023115;28;19913;-56
2021/03/31 04:16:19;;;;;;;;;;;13.20;70.00;;;;;;5039013;28;19936;-57
2021/03/31 04:18:44;;;;;;;;;;;13.20;70.00;;;;;;5021501;28;20024;-57
2021/03/31 04:21:10;;;;;;;;;;;13.20;70.10;;;;;;5037290;28;19913;-56
2021/03/31 04:23:36;;;;;;;;;;;13.10;70.10;;;;;;5022274;28;19914;-59
2021/03/31 04:26:02;;;;;;;;;;;13.10;70.20;;;;;;5039440;28;20048;-57
2021/03/31 04:28:27;;;;;;;;;;;13.10;70.20;;;;;;5022544;28;20412;-58
2021/03/31 04:30:53;;;;;;;;;;;13.10;70.10;;;;;;5036940;28;19917;-57
2021/03/31 04:33:18;;;;;;;;;;;13.10;70.20;;;;;;5021420;28;19952;-56
2021/03/31 04:35:44;;;;;;;;;;;13.10;70.20;;;;;;5021293;28;19916;-58
2021/03/31 04:38:10;;;;;;;;;;;13.00;70.20;;;;;;5022755;28;19917;-56
2021/03/31 04:40:52;;;;;;;;;;;13.00;70.20;;;;;;5026100;28;19925;-58
2021/03/31 04:43:18;;;;;;;;;;;13.00;70.30;;;;;;5027479;28;19912;-60
2021/03/31 04:45:44;;;;;;;;;;;13.00;70.30;;;;;;5025544;28;19917;-57
2021/03/31 04:48:09;;;;;;;;;;;12.90;70.90;;;;;;5027879;28;19913;-59
2021/03/31 04:50:35;;;;;;;;;;;12.90;70.40;;;;;;5026996;28;19956;-59
2021/03/31 04:53:00;;;;;;;;;;;12.90;70.40;;;;;;5027441;28;19935;-59
2021/03/31 04:55:26;;;;;;;;;;;12.90;70.40;;;;;;5027606;28;19917;-59
2021/03/31 04:57:51;;;;;;;;;;;12.90;70.30;;;;;;5025681;28;19913;-57
2021/03/31 05:00:17;;;;;;;;;;;12.90;70.40;;;;;;5007178;28;19916;-61
2021/03/31 05:02:42;;;;;;;;;;;12.80;70.40;;;;;;5026308;28;19972;-58
2021/03/31 05:05:08;;;;;;;;;;;12.80;70.40;;;;;;5026554;28;19920;-56
2021/03/31 05:07:33;;;;;;;;;;;12.80;70.50;;;;;;5027145;28;20420;-56
2021/03/31 05:09:59;;;;;;;;;;;12.80;70.50;;;;;;5026202;28;20523;-59
2021/03/31 05:12:25;;;;;;;;;;;12.80;70.50;;;;;;5025896;28;19916;-60
2021/03/31 05:14:50;;;;;;;;;;;12.80;70.60;;;;;;5026204;28;20901;-57
2021/03/31 05:17:16;;;;;;;;;;;12.80;70.60;;;;;;5026902;28;19915;-61
2021/03/31 05:19:41;;;;;;;;;;;12.70;70.50;;;;;;5026385;28;19917;-57
2021/03/31 05:22:06;;;;;;;;;;;12.70;70.60;;;;;;5026005;28;20283;-63
2021/03/31 05:24:32;;;;;;;;;;;12.70;70.60;;;;;;5025823;28;19913;-58
2021/03/31 05:26:57;;;;;;;;;;;12.70;70.60;;;;;;5025414;28;19928;-59
2021/03/31 05:29:23;;;;;;;;;;;12.70;70.60;;;;;;5021237;28;19920;-56
2021/03/31 05:31:48;;;;;;;;;;;12.60;70.70;;;;;;5019444;28;20243;-55
2021/03/31 05:34:14;;;;;;;;;;;12.60;70.70;;;;;;5023939;28;19921;-58
2021/03/31 05:36:39;;;;;;;;;;;12.60;70.70;;;;;;5025235;28;19913;-56
2021/03/31 05:39:05;;;;;;;;;;;12.60;70.80;;;;;;5021132;28;19928;-56
2021/03/31 05:41:30;;;;;;;;;;;12.60;70.80;;;;;;5024509;28;19917;-59
2021/03/31 05:43:56;;;;;;;;;;;12.60;70.80;;;;;;5023936;28;19964;-58
2021/03/31 05:46:21;;;;;;;;;;;12.50;70.70;;;;;;5027194;28;19925;-60
2021/03/31 05:48:47;;;;;;;;;;;12.50;70.70;;;;;;5025950;28;20387;-56
2021/03/31 05:51:12;;;;;;;;;;;12.50;70.80;;;;;;5020149;28;19917;-56
2021/03/31 05:53:37;;;;;;;;;;;12.50;70.90;;;;;;5022888;28;19924;-56
2021/03/31 05:56:05;;;;;;;;;;;12.50;71.00;;;;;;5026363;28;20333;-56
2021/03/31 05:58:31;;;;;;;;;;;12.50;71.00;;;;;;5024305;28;19909;-60
2021/03/31 06:00:56;;;;;;;;;;;12.40;70.90;;;;;;5025015;28;19921;-59
2021/03/31 06:03:22;;;;;;;;;;;12.40;71.20;;;;;;5024198;28;20411;-56
2021/03/31 06:05:47;;;;;;;;;;;12.40;71.30;;;;;;5023302;28;19913;-60
2021/03/31 06:08:13;;;;;;;;;;;12.40;71.30;;;;;;5024439;28;19917;-59
2021/03/31 06:10:39;;;;;;;;;;;12.40;71.20;;;;;;5041816;28;20364;-56
2021/03/31 06:13:05;;;;;;;;;;;12.40;71.30;;;;;;5024039;28;19917;-56
2021/03/31 06:15:34;;;;;;;;;;;12.30;71.10;;;;;;5024059;28;19932;-59
2021/03/31 06:18:08;;;;;;;;;;;12.40;71.30;;;;;;5024538;28;19924;-59
2021/03/31 06:20:38;;;;;;;;;;;12.30;71.20;;;;;;5022741;28;19948;-58
2021/03/31 06:23:13;;;;;;;;;;;12.30;71.10;;;;;;5022003;28;19928;-57
2021/03/31 06:28:14;;;;;;;;;;;12.30;71.40;;;;;;5020743;28;19921;-56
2021/03/31 06:30:39;;;;;;;;;;;12.30;71.30;;;;;;5018965;28;20002;-60
2021/03/31 06:33:05;;;;;;;;;;;12.30;71.30;;;;;;5024240;28;20845;-57
2021/03/31 06:35:30;;;;;;;;;;;12.30;71.50;;;;;;5025651;28;19921;-59
2021/03/31 06:38:09;;;;;;;;;;;12.30;71.50;;;;;;5005762;28;19913;-57
2021/03/31 06:40:40;;;;;;;;;;;12.30;71.50;;;;;;5007769;28;19936;-57
2021/03/31 06:43:12;;;;;;;;;;;12.30;71.60;;;;;;5005386;28;20312;-59
2021/03/31 06:45:43;;;;;;;;;;;12.30;71.60;;;;;;5021393;28;19929;-58
2021/03/31 06:48:09;;;;;;;;;;;12.30;71.70;;;;;;5024581;28;19917;-58
2021/03/31 06:50:35;;;;;;;;;;;12.30;71.60;;;;;;5024882;28;20613;-60
2021/03/31 06:53:01;;;;;;;;;;;12.30;71.50;;;;;;5020339;28;20353;-59
2021/03/31 06:55:27;;;;;;;;;;;12.30;71.60;;;;;;5021033;28;19916;-56
2021/03/31 06:57:53;;;;;;;;;;;12.30;71.60;;;;;;5022702;28;19913;-57
2021/03/31 07:00:25;;;;;;;;;;;12.30;71.60;;;;;;5020242;28;20008;-59
2021/03/31 07:02:51;;;;;;;;;;;12.30;71.60;;;;;;5025410;28;20293;-56
2021/03/31 07:05:17;;;;;;;;;;;12.30;71.50;;;;;;5026747;28;19921;-57
2021/03/31 07:07:42;;;;;;;;;;;12.30;71.50;;;;;;5008223;28;19925;-58
2021/03/31 07:10:15;;;;;;;;;;;12.30;71.50;;;;;;5027458;28;20266;-58
2021/03/31 07:12:44;;;;;;;;;;;12.30;71.70;;;;;;5022599;28;19967;-58
2021/03/31 07:15:10;;;;;;;;;;;12.20;71.80;;;;;;5026023;28;20348;-56
2021/03/31 07:17:36;;;;;;;;;;;12.20;72.00;;;;;;5023935;28;19925;-58
2021/03/31 07:20:02;;;;;;;;;;;12.20;72.10;;;;;;5021109;28;19921;-58
2021/03/31 07:22:27;;;;;;;;;;;12.20;72.20;;;;;;5017859;28;19918;-59
2021/03/31 07:24:54;;;;;;;;;;;12.20;72.20;;;;;;5023845;28;20232;-59
2021/03/31 07:27:19;;;;;;;;;;;12.20;72.30;;;;;;5006557;28;19939;-58
2021/03/31 07:30:05;;;;;;;;;;;12.30;72.30;;;;;;5023587;28;20385;-57
2021/03/31 07:32:35;;;;;;;;;;;12.20;72.30;;;;;;5026202;28;19920;-56
2021/03/31 07:35:01;;;;;;;;;;;12.20;72.50;;;;;;5023666;28;19960;-57
2021/03/31 07:37:27;;;;;;;;;;;12.20;72.50;;;;;;5024661;28;20343;-61
2021/03/31 07:39:52;;;;;;;;;;;12.30;72.60;;;;;;5026727;28;19939;-58
2021/03/31 07:42:18;;;;;;;;;;;12.20;72.60;;;;;;5021477;28;19968;-57
2021/03/31 07:44:43;;;;;;;;;;;12.30;72.80;;;;;;5026285;28;20360;-60
2021/03/31 07:47:08;;;;;;;;;;;12.30;72.90;;;;;;5004002;28;19921;-59
2021/03/31 07:49:34;;;;;;;;;;;12.20;73.00;;;;;;5021745;28;19964;-60
2021/03/31 07:52:01;;;;;;;;;;;12.20;73.00;;;;;;5021566;28;20380;-59
2021/03/31 07:54:27;;;;;;;;;;;12.20;73.00;;;;;;5023950;28;19921;-56
2021/03/31 07:56:54;;;;;;;;;;;12.20;72.90;;;;;;5018808;28;19913;-59
2021/03/31 07:59:20;;;;;;;;;;;12.20;73.00;;;;;;5025343;28;19913;-56
2021/03/31 08:01:46;;;;;;;;;;;12.20;72.90;;;;;;5024062;28;19958;-58
2021/03/31 08:04:12;;;;;;;;;;;12.30;73.00;;;;;;5026831;28;19921;-58
2021/03/31 08:06:38;;;;;;;;;;;12.30;73.00;;;;;;5025641;28;19921;-59
2021/03/31 08:09:04;;;;;;;;;;;12.30;73.10;;;;;;5028352;28;19917;-59
2021/03/31 08:11:36;;;;;;;;;;;12.30;73.10;;;;;;5011913;28;19975;-57
2021/03/31 08:14:02;;;;;;;;;;;12.30;73.10;;;;;;5027892;28;19917;-61
2021/03/31 08:16:30;;;;;;;;;;;12.30;73.20;;;;;;5027814;28;19970;-59
2021/03/31 08:18:56;;;;;;;;;;;12.30;73.10;;;;;;5026495;28;20341;-58
2021/03/31 08:21:22;;;;;;;;;;;12.40;73.20;;;;;;5026073;28;20020;-60
2021/03/31 08:23:48;;;;;;;;;;;12.30;73.10;;;;;;5026520;28;20140;-58
2021/03/31 08:26:29;;;;;;;;;;;12.30;73.00;;;;;;5025454;28;19931;-59
2021/03/31 08:28:54;;;;;;;;;;;12.30;73.00;;;;;;5026476;28;20160;-60
2021/03/31 08:31:21;;;;;;;;;;;12.30;73.00;;;;;;5009157;28;20106;-59
2021/03/31 08:33:46;;;;;;;;;;;12.30;73.00;;;;;;5023845;28;19920;-56
2021/03/31 08:36:13;;;;;;;;;;;12.30;73.00;;;;;;5026133;28;19920;-56
2021/03/31 08:38:38;;;;;;;;;;;12.30;73.00;;;;;;5024893;28;19921;-60
2021/03/31 08:41:16;;;;;;;;;;;12.30;73.00;;;;;;5028191;28;19921;-57
2021/03/31 08:43:43;;;;;;;;;;;12.30;72.90;;;;;;5026974;28;20392;-57
2021/03/31 08:46:09;;;;;;;;;;;12.30;72.90;;;;;;5025903;28;20403;-56
2021/03/31 08:48:35;;;;;;;;;;;12.30;72.80;;;;;;5024149;28;19917;-61
2021/03/31 08:51:13;;;;;;;;;;;12.40;72.90;;;;;;5020979;28;20207;-56
2021/03/31 08:53:39;;;;;;;;;;;12.40;73.10;;;;;;5023863;28;20059;-58
2021/03/31 08:56:04;;;;;;;;;;;12.40;73.30;;;;;;5025212;28;20012;-60
2021/03/31 08:58:30;;;;;;;;;;;12.40;73.50;;;;;;5011372;28;19928;-56
2021/03/31 09:00:57;;;;;;;;;;;12.40;73.40;;;;;;5008273;28;19917;-58
2021/03/31 09:03:26;;;;;;;;;;;12.40;73.40;;;;;;5004566;28;19909;-59
2021/03/31 09:05:53;;;;;;;;;;;12.40;73.40;;;;;;5026031;28;19913;-60
2021/03/31 09:08:22;;;;;;;;;;;12.40;73.20;;;;;;5026747;28;20005;-57
2021/03/31 09:10:51;;;;;;;;;;;12.40;73.20;;;;;;5023230;28;20210;-58
2021/03/31 09:13:24;;;;;;;;;;;12.40;73.20;;;;;;5021360;28;19921;-58
2021/03/31 09:15:53;;;;;;;;;;;12.40;73.20;;;;;;5041118;28;19954;-59
2021/03/31 09:18:18;;;;;;;;;;;12.40;73.20;;;;;;5024982;28;20398;-60
2021/03/31 09:20:44;;;;;;;;;;;12.40;73.10;;;;;;5020723;28;19917;-61
2021/03/31 09:23:17;;;;;;;;;;;12.40;73.10;;;;;;5021912;28;19925;-60
2021/03/31 09:25:42;;;;;;;;;;;12.40;73.00;;;;;;5023138;28;19909;-57
2021/03/31 09:28:15;;;;;;;;;;;12.50;73.00;;;;;;5021575;28;19928;-57
2021/03/31 09:30:40;;;;;;;;;;;12.50;72.90;;;;;;5021734;28;20364;-59
2021/03/31 09:33:13;;;;;;;;;;;12.50;72.90;;;;;;5022879;28;19913;-58
2021/03/31 09:35:38;;;;;;;;;;;12.50;72.90;;;;;;5016722;28;19914;-60
2021/03/31 09:38:04;;;;;;;;;;;12.50;72.90;;;;;;5021059;28;19928;-58
2021/03/31 09:40:30;;;;;;;;;;;12.50;72.80;;;;;;5020772;28;19936;-59
2021/03/31 09:42:59;;;;;;;;;;;12.60;72.90;;;;;;5023524;28;19917;-56
2021/03/31 09:45:29;;;;;;;;;;;12.60;72.70;;;;;;5004430;28;19917;-61
2021/03/31 09:47:56;;;;;;;;;;;12.60;72.70;;;;;;5023312;28;20344;-57
2021/03/31 09:50:25;;;;;;;;;;;12.60;72.60;;;;;;4989642;28;19913;-57
2021/03/31 09:52:54;;;;;;;;;;;12.60;72.60;;;;;;5024040;28;20331;-60
2021/03/31 09:55:20;;;;;;;;;;;12.70;72.60;;;;;;5007285;28;20372;-58
2021/03/31 09:57:46;;;;;;;;;;;12.70;72.50;;;;;;5021027;28;20003;-61
2021/03/31 10:00:12;;;;;;;;;;;12.70;72.50;;;;;;5004496;28;19956;-58
2021/03/31 10:02:39;;;;;;;;;;;12.70;72.30;;;;;;5022223;28;20020;-57
2021/03/31 10:05:06;;;;;;;;;;;12.70;72.20;;;;;;5022439;28;19921;-61
2021/03/31 10:07:32;;;;;;;;;;;12.80;72.30;;;;;;5017270;28;19917;-60
2021/03/31 10:09:57;;;;;;;;;;;12.80;72.20;;;;;;5022171;28;20244;-60
2021/03/31 10:12:25;;;;;;;;;;;12.80;72.20;;;;;;5020737;28;19921;-58
2021/03/31 10:14:53;;;;;;;;;;;12.80;72.10;;;;;;5022600;28;20579;-59
2021/03/31 10:17:19;;;;;;;;;;;12.90;72.10;;;;;;5022452;28;19921;-58
2021/03/31 10:19:44;;;;;;;;;;;12.90;72.00;;;;;;5024039;28;19924;-60
2021/03/31 10:22:10;;;;;;;;;;;12.90;72.00;;;;;;5024663;28;19919;-58
2021/03/31 10:24:36;;;;;;;;;;;12.90;71.90;;;;;;5020742;28;20419;-60
2021/03/31 10:27:02;;;;;;;;;;;13.00;71.90;;;;;;5021200;28;19956;-57
2021/03/31 10:29:27;;;;;;;;;;;13.00;71.80;;;;;;5019249;28;19956;-60
2021/03/31 10:31:54;;;;;;;;;;;13.00;71.80;;;;;;5019753;28;20814;-57
2021/03/31 10:34:19;;;;;;;;;;;13.10;71.80;;;;;;5005281;28;19967;-59
2021/03/31 10:47:33;;;;;;;;;;;13.20;71.70;;;;;;5023305;28;20018;-59
2021/03/31 10:50:01;;;;;;;;;;;13.30;72.20;;;;;;5007551;28;20011;-56
2021/03/31 10:52:33;;;;;;;;;;;13.30;72.40;;;;;;5021398;28;19932;-59
2021/03/31 10:54:59;;;;;;;;;;;13.30;72.50;;;;;;5005776;28;19917;-58
2021/03/31 10:57:24;;;;;;;;;;;13.40;71.70;;;;;;5025845;28;19921;-57
2021/03/31 10:59:50;;;;;;;;;;;13.40;71.40;;;;;;5029954;28;20102;-57
2021/03/31 11:02:15;;;;;;;;;;;13.50;71.30;;;;;;5009268;28;19976;-59
2021/03/31 11:04:42;;;;;;;;;;;13.50;71.20;;;;;;5023676;28;20403;-58
2021/03/31 11:07:08;;;;;;;;;;;13.50;71.10;;;;;;5020148;28;19992;-59
2021/03/31 11:09:33;;;;;;;;;;;13.60;71.30;;;;;;5027216;28;19921;-57
2021/03/31 11:11:59;;;;;;;;;;;13.60;71.40;;;;;;5029941;28;19921;-57
2021/03/31 11:14:25;;;;;;;;;;;13.70;72.10;;;;;;5027712;28;20318;-59
2021/03/31 11:16:59;;;;;;;;;;;13.80;72.50;;;;;;5023974;28;19952;-61
2021/03/31 11:27:37;;;;;;;;;;;14.30;71.00;;;;;;5024114;28;20011;-56
2021/03/31 11:30:05;;;;;;;;;;;14.40;70.80;;;;;;5023073;28;19992;-59
2021/03/31 11:32:30;;;;;;;;;;;14.50;70.80;;;;;;5018594;28;19949;-58
2021/03/31 11:34:56;;;;;;;;;;;14.60;70.40;;;;;;5022504;28;20424;-59
2021/03/31 11:37:21;;;;;;;;;;;14.70;70.00;;;;;;5005459;28;19920;-56
2021/03/31 11:39:47;;;;;;;;;;;14.90;69.80;;;;;;5021896;28;19944;-56
2021/03/31 11:42:12;;;;;;;;;;;15.00;69.40;;;;;;5025989;28;20423;-59
2021/03/31 11:44:38;;;;;;;;;;;15.10;68.80;;;;;;5026986;28;19960;-58
2021/03/31 11:47:03;;;;;;;;;;;15.20;68.10;;;;;;5019573;28;19948;-61
2021/03/31 11:49:29;;;;;;;;;;;15.30;67.40;;;;;;5024267;28;19943;-59
2021/03/31 11:51:54;;;;;;;;;;;15.40;67.10;;;;;;5025871;28;19924;-60
2021/03/31 11:54:20;;;;;;;;;;;15.50;66.70;;;;;;5025617;28;19994;-57
2021/03/31 11:56:45;;;;;;;;;;;15.60;66.10;;;;;;5026942;28;19920;-56
2021/03/31 11:59:11;;;;;;;;;;;15.80;65.60;;;;;;5009064;28;19921;-58
2021/03/31 12:01:36;;;;;;;;;;;15.90;64.80;;;;;;5005786;28;21342;-59
2021/03/31 12:04:01;;;;;;;;;;;16.00;64.30;;;;;;5022653;28;20262;-58
2021/03/31 12:06:27;;;;;;;;;;;16.10;63.80;;;;;;5021677;28;19921;-58
2021/03/31 12:08:53;;;;;;;;;;;16.20;63.60;;;;;;5022840;28;19940;-57
2021/03/31 12:11:19;;;;;;;;;;;16.40;63.60;;;;;;5019385;28;19913;-57
2021/03/31 12:13:44;;;;;;;;;;;16.40;63.60;;;;;;5022571;28;19913;-59
2021/03/31 12:16:10;;;;;;;;;;;16.60;63.40;;;;;;5021107;28;19917;-56
2021/03/31 12:18:35;;;;;;;;;;;16.60;63.00;;;;;;5025242;28;19925;-60
2021/03/31 12:21:01;;;;;;;;;;;16.70;62.90;;;;;;5009510;28;19920;-59
2021/03/31 12:23:26;;;;;;;;;;;16.80;62.70;;;;;;5024146;28;19979;-59
2021/03/31 12:25:52;;;;;;;;;;;16.90;62.50;;;;;;5021659;28;20266;-60
2021/03/31 12:28:21;;;;;;;;;;;16.90;62.50;;;;;;5002693;28;20355;-59
2021/03/31 12:30:46;;;;;;;;;;;17.00;62.50;;;;;;5023374;28;19963;-60
2021/03/31 12:33:12;;;;;;;;;;;17.00;62.50;;;;;;5023181;28;19920;-59
2021/03/31 12:35:37;;;;;;;;;;;17.20;62.40;;;;;;5022835;28;19928;-59
2021/03/31 12:38:03;;;;;;;;;;;17.30;62.30;;;;;;5025072;28;20324;-56
2021/03/31 12:40:28;;;;;;;;;;;17.40;62.10;;;;;;5024505;28;19921;-59
2021/03/31 12:42:54;;;;;;;;;;;17.40;61.90;;;;;;5012338;28;20988;-56
2021/03/31 12:45:19;;;;;;;;;;;17.50;61.60;;;;;;5025337;28;19923;-60
2021/03/31 12:47:45;;;;;;;;;;;17.60;61.20;;;;;;5004986;28;19960;-58
2021/03/31 12:50:15;;;;;;;;;;;17.70;61.30;;;;;;5020294;28;20051;-59
2021/03/31 12:52:44;;;;;;;;;;;17.80;61.90;;;;;;5000644;28;19921;-57
2021/03/31 12:55:13;;;;;;;;;;;17.80;61.50;;;;;;5021679;28;20299;-59
2021/03/31 12:57:39;;;;;;;;;;;17.90;61.10;;;;;;5023210;28;20471;-55
2021/03/31 13:00:05;;;;;;;;;;;18.00;60.20;;;;;;5022906;28;20014;-58
2021/03/31 13:02:31;;;;;;;;;;;18.10;58.60;;;;;;5002355;28;19964;-56
2021/03/31 13:04:56;;;;;;;;;;;18.20;59.30;;;;;;5021903;28;20022;-57
2021/03/31 13:07:22;;;;;;;;;;;18.20;59.80;;;;;;5018146;28;20412;-59
2021/03/31 13:09:48;;;;;;;;;;;18.30;59.80;;;;;;5023728;28;19913;-57
2021/03/31 13:12:20;;;;;;;;;;;18.40;59.70;;;;;;5023917;28;19921;-57
2021/03/31 13:17:45;;;;;;;;;;;18.50;58.40;;;;;;5017461;28;19967;-57
2021/03/31 13:22:59;;;;;;;;;;;18.60;58.70;;;;;;5019122;28;19924;-56
2021/03/31 13:25:28;;;;;;;;;;;18.70;58.60;;;;;;5024380;28;19924;-58
2021/03/31 13:28:23;;;;;;;;;;;18.80;58.30;;;;;;5024149;28;19917;-57
2021/03/31 13:33:30;;;;;;;;;;;18.90;58.30;;;;;;5035795;28;19920;-57
2021/03/31 13:41:17;;;;;;;;;;;19.10;57.50;;;;;;5023890;28;19913;-59
2021/03/31 13:43:42;;;;;;;;;;;19.20;57.10;;;;;;5005680;28;19928;-58
2021/03/31 13:46:08;;;;;;;;;;;19.20;57.10;;;;;;5024254;28;20028;-57
2021/03/31 13:48:37;;;;;;;;;;;19.30;56.90;;;;;;5024788;28;19921;-60
2021/03/31 13:51:05;;;;;;;;;;;19.40;56.80;;;;;;5022729;28;19944;-57
2021/03/31 13:53:33;;;;;;;;;;;19.40;57.00;;;;;;5017764;28;19979;-57
2021/03/31 13:56:01;;;;;;;;;;;19.50;57.60;;;;;;5003376;28;19921;-58
2021/03/31 13:58:26;;;;;;;;;;;19.50;56.50;;;;;;5019205;28;19917;-58
2021/03/31 14:00:52;;;;;;;;;;;19.60;56.40;;;;;;5004421;28;19917;-59
2021/03/31 14:03:17;;;;;;;;;;;19.60;56.20;;;;;;5023710;28;20364;-56
2021/03/31 14:05:43;;;;;;;;;;;19.70;55.90;;;;;;5020207;28;19921;-60
2021/03/31 14:08:08;;;;;;;;;;;19.80;55.60;;;;;;5022872;28;19925;-59
2021/03/31 14:10:35;;;;;;;;;;;19.80;55.50;;;;;;5021934;28;19937;-61
2021/03/31 14:13:01;;;;;;;;;;;19.90;55.40;;;;;;5019372;28;19965;-57
2021/03/31 14:15:26;;;;;;;;;;;20.00;55.40;;;;;;5014933;28;20613;-58
2021/03/31 14:17:52;;;;;;;;;;;20.00;55.30;;;;;;5018451;28;19913;-59
2021/03/31 14:20:18;;;;;;;;;;;20.00;54.40;;;;;;5021748;28;20468;-58
2021/03/31 14:22:43;;;;;;;;;;;20.10;54.30;;;;;;5019966;28;19920;-57
2021/03/31 14:25:10;;;;;;;;;;;20.10;54.40;;;;;;5016715;28;19931;-58
2021/03/31 14:27:35;;;;;;;;;;;20.10;54.30;;;;;;5009007;28;20325;-57
2021/03/31 14:30:04;;;;;;;;;;;20.20;54.20;;;;;;5010138;28;19975;-58
2021/03/31 14:32:30;;;;;;;;;;;20.20;53.90;;;;;;5012544;28;19921;-57
2021/03/31 14:34:55;;;;;;;;;;;20.30;54.30;;;;;;5013066;28;20006;-57
2021/03/31 14:37:21;;;;;;;;;;;20.30;53.90;;;;;;5016339;28;19939;-59
2021/03/31 14:39:47;;;;;;;;;;;20.40;53.90;;;;;;5002513;28;19932;-58
2021/03/31 14:42:12;;;;;;;;;;;20.50;53.30;;;;;;4999711;28;19916;-59
2021/03/31 14:44:38;;;;;;;;;;;20.50;53.60;;;;;;5021616;28;19927;-58
2021/03/31 14:47:05;;;;;;;;;;;20.60;53.90;;;;;;5000944;28;19928;-59
2021/03/31 14:49:31;;;;;;;;;;;20.60;51.80;;;;;;4995974;28;19975;-57